TAF NSTU
NSTU 280541Z 2806/2906 12012KT P6SM SCT020 SCT100 BKN220=
METAR NSTU
WC NSTU
WS NSTU
WV NSTU